createdAt,value
2019-05-15T00:01:04.024Z,1.85
2019-05-15T00:02:10.907Z,2.22
2019-05-15T00:03:16.143Z,2.70
2019-05-15T00:04:20.793Z,2.20
2019-05-15T00:05:25.688Z,2.25
2019-05-15T00:06:30.383Z,2.00
2019-05-15T00:07:35.007Z,1.85
2019-05-15T00:08:39.543Z,2.12
2019-05-15T00:09:44.172Z,2.00
2019-05-15T00:10:48.763Z,2.15
2019-05-15T00:11:53.444Z,2.00
2019-05-15T00:12:58.114Z,1.98
2019-05-15T00:14:02.779Z,2.35
2019-05-15T00:15:09.214Z,1.80
2019-05-15T00:16:13.695Z,2.40
2019-05-15T00:17:19.219Z,1.90
2019-05-15T00:18:24.011Z,2.30
2019-05-15T00:19:28.497Z,2.40
2019-05-15T00:20:33.399Z,2.15
2019-05-15T00:21:38.402Z,2.20
2019-05-15T00:22:43.477Z,2.80
2019-05-15T00:23:49.581Z,1.62
2019-05-15T00:24:54.206Z,2.58
2019-05-15T00:25:58.621Z,2.12
2019-05-15T00:27:03.178Z,2.17
2019-05-15T00:28:09.468Z,2.22
2019-05-15T00:29:16.280Z,2.60
2019-05-15T00:30:20.187Z,2.17
2019-05-15T00:31:24.949Z,2.20
2019-05-15T00:32:29.396Z,2.30
2019-05-15T00:33:34.113Z,2.22
2019-05-15T00:34:38.754Z,2.85
2019-05-15T00:35:43.409Z,2.12
2019-05-15T00:36:48.872Z,2.35
2019-05-15T00:37:53.656Z,2.50
2019-05-15T00:38:59.048Z,2.22
2019-05-15T00:40:04.334Z,2.10
2019-05-15T00:41:09.399Z,2.27
2019-05-15T00:42:14.371Z,2.22
2019-05-15T00:43:18.749Z,2.60
2019-05-15T00:44:23.323Z,2.25
2019-05-15T00:45:27.875Z,2.30
2019-05-15T00:46:32.862Z,2.42
2019-05-15T00:47:39.748Z,2.50
2019-05-15T00:48:43.884Z,2.20
2019-05-15T00:49:48.918Z,2.20
2019-05-15T00:50:53.672Z,2.25
2019-05-15T00:51:59.135Z,2.30
2019-05-15T00:53:03.976Z,2.35
2019-05-15T00:54:08.554Z,2.33
2019-05-15T00:55:13.322Z,2.25
2019-05-15T00:56:19.503Z,2.25
2019-05-15T00:57:24.072Z,2.65
2019-05-15T00:58:28.601Z,2.30
2019-05-15T00:59:33.221Z,1.95
2019-05-15T01:00:41.149Z,1.95
2019-05-15T01:01:48.603Z,1.80
2019-05-15T01:02:52.447Z,2.65
2019-05-15T01:03:58.573Z,2.20
2019-05-15T01:05:03.581Z,2.33
2019-05-15T01:06:08.532Z,2.40
2019-05-15T01:07:13.413Z,2.85
2019-05-15T01:08:19.235Z,2.35
2019-05-15T01:09:24.076Z,2.40
2019-05-15T01:10:28.808Z,2.60
2019-05-15T01:11:33.303Z,2.30
2019-05-15T01:12:38.136Z,1.82
2019-05-15T01:13:42.569Z,2.20
2019-05-15T01:14:48.997Z,2.58
2019-05-15T01:15:53.424Z,2.12
2019-05-15T01:16:58.308Z,2.00
2019-05-15T01:18:02.889Z,2.30
2019-05-15T01:19:09.262Z,2.10
2019-05-15T01:20:13.792Z,1.92
2019-05-15T01:21:18.872Z,2.15
2019-05-15T01:22:23.789Z,2.60
2019-05-15T01:23:28.411Z,2.30
2019-05-15T01:24:33.032Z,2.52
2019-05-15T01:25:39.047Z,2.22
2019-05-15T01:26:43.646Z,2.62
2019-05-15T01:27:49.008Z,2.22
2019-05-15T01:28:53.649Z,2.95
2019-05-15T01:29:58.280Z,2.10
2019-05-15T01:31:03.323Z,1.92
2019-05-15T01:32:08.434Z,2.65
2019-05-15T01:33:13.214Z,2.20
2019-05-15T01:34:18.449Z,2.40
2019-05-15T01:35:23.155Z,2.02
2019-05-15T01:36:28.799Z,2.27
2019-05-15T01:37:33.419Z,2.27
2019-05-15T01:38:38.853Z,2.87
2019-05-15T01:39:43.508Z,2.20
2019-05-15T01:40:48.469Z,2.20
2019-05-15T01:41:53.369Z,2.40
2019-05-15T01:42:58.634Z,2.27
2019-05-15T01:44:03.234Z,2.33
2019-05-15T01:45:08.671Z,2.20
2019-05-15T01:46:13.470Z,1.98
2019-05-15T01:47:18.936Z,2.50
2019-05-15T01:48:23.609Z,2.30
2019-05-15T01:49:28.167Z,2.00
2019-05-15T01:50:32.537Z,2.10
2019-05-15T01:51:38.500Z,2.00
2019-05-15T01:52:43.092Z,2.10
2019-05-15T01:53:48.169Z,2.30
2019-05-15T01:54:52.758Z,2.45
2019-05-15T01:55:58.896Z,2.20
2019-05-15T01:57:03.639Z,2.17
2019-05-15T01:58:09.043Z,2.62
2019-05-15T01:59:13.900Z,2.55
2019-05-15T02:00:19.071Z,2.15
2019-05-15T02:01:23.439Z,2.30
2019-05-15T02:02:28.240Z,1.98
2019-05-15T02:03:32.687Z,2.55
2019-05-15T02:04:39.304Z,2.70
2019-05-15T02:06:02.535Z,2.50
2019-05-15T02:07:08.308Z,1.90
2019-05-15T02:08:12.966Z,2.20
2019-05-15T02:09:18.516Z,2.40
2019-05-15T02:10:23.080Z,2.25
2019-05-15T02:11:28.874Z,2.30
2019-05-15T02:12:33.722Z,2.72
2019-05-15T02:13:39.049Z,2.40
2019-05-15T02:14:43.759Z,2.45
2019-05-15T02:15:48.530Z,2.58
2019-05-15T02:16:53.070Z,2.65
2019-05-15T02:17:58.783Z,2.40
2019-05-15T02:19:03.503Z,2.70
2019-05-15T02:20:08.854Z,2.15
2019-05-15T02:21:13.505Z,2.58
2019-05-15T02:22:18.925Z,2.05
2019-05-15T02:23:23.565Z,2.20
2019-05-15T02:24:28.568Z,2.20
2019-05-15T02:25:33.264Z,2.33
2019-05-15T02:26:38.912Z,2.30
2019-05-15T02:27:43.517Z,2.35
2019-05-15T02:28:48.809Z,2.45
2019-05-15T02:29:53.663Z,1.92
2019-05-15T02:30:58.893Z,2.33
2019-05-15T02:32:03.350Z,2.25
2019-05-15T02:33:10.649Z,2.22
2019-05-15T02:34:13.999Z,1.92
2019-05-15T02:35:18.609Z,1.90
2019-05-15T02:36:23.073Z,2.47
2019-05-15T02:37:29.450Z,1.95
2019-05-15T02:38:33.917Z,2.10
2019-05-15T02:39:39.012Z,1.82
2019-05-15T02:40:43.773Z,1.95
2019-05-15T02:41:49.443Z,2.12
2019-05-15T02:42:54.351Z,2.55
2019-05-15T02:43:59.315Z,2.20
2019-05-15T02:45:03.986Z,1.72
2019-05-15T02:46:10.153Z,2.17
2019-05-15T02:47:14.973Z,2.35
2019-05-15T02:48:20.105Z,2.20
2019-05-15T02:49:24.880Z,2.22
2019-05-15T02:50:29.499Z,2.00
2019-05-15T02:51:33.857Z,2.20
2019-05-15T02:52:40.691Z,2.05
2019-05-15T02:53:45.088Z,2.17
2019-05-15T02:54:50.004Z,2.35
2019-05-15T02:55:54.762Z,1.87
2019-05-15T02:56:59.465Z,1.80
2019-05-15T02:58:03.875Z,2.00
2019-05-15T02:59:09.275Z,2.10
2019-05-15T03:00:32.696Z,2.15
2019-05-15T03:01:21.454Z,2.02
2019-05-15T03:02:28.466Z,2.30
2019-05-15T03:03:32.469Z,2.00
2019-05-15T03:04:39.801Z,1.80
2019-05-15T03:05:43.209Z,2.10
2019-05-15T03:06:49.624Z,2.20
2019-05-15T03:07:54.057Z,2.02
2019-05-15T03:08:59.632Z,2.27
2019-05-15T03:10:04.492Z,2.05
2019-05-15T03:11:09.759Z,2.20
2019-05-15T03:12:14.782Z,2.40
2019-05-15T03:13:19.143Z,1.60
2019-05-15T03:14:23.933Z,2.33
2019-05-15T03:15:29.113Z,1.90
2019-05-15T03:16:33.972Z,2.52
2019-05-15T03:17:40.281Z,2.00
2019-05-15T03:18:44.881Z,1.98
2019-05-15T03:19:49.911Z,1.70
2019-05-15T03:20:54.896Z,1.45
2019-05-15T03:21:59.999Z,1.90
2019-05-15T03:23:04.954Z,1.92
2019-05-15T03:24:10.283Z,2.92
2019-05-15T03:25:15.429Z,1.62
2019-05-15T03:26:20.045Z,1.60
2019-05-15T03:27:24.925Z,1.90
2019-05-15T03:28:29.668Z,1.70
2019-05-15T03:29:34.291Z,1.62
2019-05-15T03:31:06.564Z,1.98
2019-05-15T03:32:00.673Z,1.80
2019-05-15T03:33:01.069Z,1.52
2019-05-15T03:34:02.682Z,1.92
2019-05-15T03:35:06.041Z,2.02
2019-05-15T03:36:13.283Z,1.75
2019-05-15T03:37:22.282Z,2.02
2019-05-15T03:38:23.593Z,1.90
2019-05-15T03:39:29.661Z,1.30
2019-05-15T03:40:34.558Z,1.80
2019-05-15T03:41:39.439Z,2.30
2019-05-15T03:42:44.051Z,1.75
2019-05-15T03:43:49.747Z,1.90
2019-05-15T03:44:54.537Z,2.00
2019-05-15T03:46:01.648Z,1.80
2019-05-15T03:47:05.223Z,1.35
2019-05-15T03:48:09.821Z,1.82
2019-05-15T03:49:14.457Z,2.00
2019-05-15T03:50:19.532Z,1.55
2019-05-15T03:51:24.557Z,1.75
2019-05-15T03:52:29.524Z,1.77
2019-05-15T03:53:34.220Z,1.85
2019-05-15T03:54:39.452Z,1.60
2019-05-15T03:55:44.277Z,1.65
2019-05-15T03:56:49.923Z,1.60
2019-05-15T03:57:58.904Z,1.90
2019-05-15T03:59:02.348Z,2.20
2019-05-15T04:00:09.555Z,1.90
2019-05-15T04:01:28.363Z,1.95
2019-05-15T04:02:19.818Z,1.90
2019-05-15T04:03:24.420Z,2.15
2019-05-15T04:04:29.814Z,1.30
2019-05-15T04:05:34.727Z,1.67
2019-05-15T04:06:39.408Z,1.27
2019-05-15T04:07:44.043Z,1.80
2019-05-15T04:08:49.686Z,1.90
2019-05-15T04:09:54.540Z,1.47
2019-05-15T04:10:59.792Z,2.00
2019-05-15T04:12:04.618Z,1.75
2019-05-15T04:13:09.730Z,1.65
2019-05-15T04:14:14.632Z,1.87
2019-05-15T04:15:19.397Z,1.52
2019-05-15T04:16:23.732Z,1.57
2019-05-15T04:17:29.490Z,1.90
2019-05-15T04:18:34.281Z,1.65
2019-05-15T04:19:39.341Z,1.92
2019-05-15T04:20:44.014Z,1.65
2019-05-15T04:21:49.445Z,1.57
2019-05-15T04:22:54.253Z,1.92
2019-05-15T04:23:59.344Z,1.70
2019-05-15T04:25:05.168Z,2.00
2019-05-15T04:26:10.599Z,1.80
2019-05-15T04:27:15.170Z,1.67
2019-05-15T04:28:21.783Z,2.15
2019-05-15T04:29:28.983Z,1.85
2019-05-15T04:30:32.801Z,1.85
2019-05-15T04:31:54.496Z,1.72
2019-05-15T04:32:43.600Z,2.00
2019-05-15T04:33:49.086Z,2.02
2019-05-15T04:34:53.960Z,1.75
2019-05-15T04:35:58.951Z,1.57
2019-05-15T04:37:03.805Z,1.87
2019-05-15T04:38:09.305Z,1.95
2019-05-15T04:39:14.291Z,1.80
2019-05-15T04:40:19.480Z,1.95
2019-05-15T04:41:24.313Z,1.70
2019-05-15T04:42:29.877Z,1.85
2019-05-15T04:43:41.337Z,1.98
2019-05-15T04:44:40.873Z,2.00
2019-05-15T04:45:45.434Z,2.05
2019-05-15T04:46:50.075Z,1.60
2019-05-15T04:47:54.873Z,1.60
2019-05-15T04:48:59.687Z,2.17
2019-05-15T04:50:04.616Z,1.52
2019-05-15T04:51:09.684Z,1.95
2019-05-15T04:52:14.681Z,1.52
2019-05-15T04:53:19.545Z,1.70
2019-05-15T04:54:24.460Z,1.87
2019-05-15T04:55:29.286Z,2.12
2019-05-15T04:56:34.134Z,2.35
2019-05-15T04:57:40.229Z,1.80
2019-05-15T04:58:45.445Z,1.72
2019-05-15T04:59:49.847Z,1.92
2019-05-15T05:00:59.571Z,1.75
2019-05-15T05:02:16.253Z,1.52
2019-05-15T05:03:09.977Z,1.30
2019-05-15T05:04:14.716Z,1.60
2019-05-15T05:05:19.265Z,1.85
2019-05-15T05:06:24.171Z,1.70
2019-05-15T05:07:29.539Z,1.55
2019-05-15T05:08:34.669Z,2.55
2019-05-15T05:09:39.365Z,1.67
2019-05-15T05:10:44.251Z,1.62
2019-05-15T05:11:49.006Z,1.85
2019-05-15T05:12:53.631Z,2.10
2019-05-15T05:13:59.116Z,1.80
2019-05-15T05:15:03.806Z,1.95
2019-05-15T05:16:09.554Z,1.98
2019-05-15T05:17:14.315Z,2.42
2019-05-15T05:18:19.278Z,2.00
2019-05-15T05:19:23.959Z,2.35
2019-05-15T05:20:28.871Z,1.87
2019-05-15T05:21:33.243Z,2.15
2019-05-15T05:22:39.295Z,1.70
2019-05-15T05:23:44.214Z,1.80
2019-05-15T05:24:49.161Z,2.37
2019-05-15T05:25:53.501Z,2.22
2019-05-15T05:26:58.246Z,1.80
2019-05-15T05:28:02.751Z,1.75
2019-05-15T05:29:08.580Z,1.82
2019-05-15T05:30:13.351Z,2.22
2019-05-15T05:31:19.051Z,1.70
2019-05-15T05:32:32.062Z,2.20
2019-05-15T05:33:30.200Z,2.20
2019-05-15T05:34:34.680Z,2.55
2019-05-15T05:35:39.214Z,1.98
2019-05-15T05:36:43.673Z,1.70
2019-05-15T05:37:48.361Z,1.92
2019-05-15T05:38:52.895Z,2.00
2019-05-15T05:39:57.770Z,1.87
2019-05-15T05:41:02.376Z,2.10
2019-05-15T05:42:07.901Z,1.87
2019-05-15T05:43:12.444Z,2.05
2019-05-15T05:44:18.916Z,2.35
2019-05-15T05:45:23.669Z,1.80
2019-05-15T05:46:28.470Z,2.22
2019-05-15T05:47:32.963Z,1.95
2019-05-15T05:48:38.324Z,1.65
2019-05-15T05:49:43.118Z,2.00
2019-05-15T05:50:49.680Z,1.57
2019-05-15T05:51:53.833Z,2.10
2019-05-15T05:52:58.486Z,1.92
2019-05-15T05:54:03.015Z,2.12
2019-05-15T05:55:08.756Z,1.92
2019-05-15T05:56:13.888Z,1.72
2019-05-15T05:57:19.377Z,2.00
2019-05-15T05:58:24.083Z,2.58
2019-05-15T05:59:28.701Z,2.20
2019-05-15T06:00:39.337Z,2.25
2019-05-15T06:01:44.431Z,2.30
2019-05-15T06:02:52.133Z,1.98
2019-05-15T06:03:55.491Z,2.30
2019-05-15T06:04:59.980Z,1.67
2019-05-15T06:06:04.627Z,1.75
2019-05-15T06:07:13.866Z,1.85
2019-05-15T06:08:15.530Z,1.90
2019-05-15T06:09:19.926Z,2.10
2019-05-15T06:10:24.541Z,1.90
2019-05-15T06:11:28.990Z,1.92
2019-05-15T06:12:33.743Z,1.67
2019-05-15T06:13:38.399Z,1.67
2019-05-15T06:14:43.060Z,2.02
2019-05-15T06:15:48.708Z,2.22
2019-05-15T06:16:53.845Z,1.70
2019-05-15T06:17:58.639Z,1.92
2019-05-15T06:19:03.345Z,1.50
2019-05-15T06:20:08.189Z,1.70
2019-05-15T06:21:13.023Z,2.02
2019-05-15T06:22:18.794Z,1.70
2019-05-15T06:23:25.855Z,1.70
2019-05-15T06:24:30.550Z,1.92
2019-05-15T06:25:35.674Z,2.05
2019-05-15T06:26:40.244Z,1.45
2019-05-15T06:27:44.936Z,2.35
2019-05-15T06:28:49.325Z,1.22
2019-05-15T06:29:54.011Z,1.40
2019-05-15T06:31:00.675Z,2.12
2019-05-15T06:32:04.957Z,2.02
2019-05-15T06:33:13.436Z,1.55
2019-05-15T06:34:17.881Z,1.62
2019-05-15T06:35:22.253Z,1.92
2019-05-15T06:36:28.882Z,1.47
2019-05-15T06:37:33.014Z,2.17
2019-05-15T06:38:39.374Z,1.90
2019-05-15T06:39:44.304Z,1.50
2019-05-15T06:40:49.447Z,1.50
2019-05-15T06:41:53.938Z,1.82
2019-05-15T06:42:59.376Z,1.70
2019-05-15T06:44:04.443Z,1.90
2019-05-15T06:45:09.375Z,2.47
2019-05-15T06:46:14.041Z,1.85
2019-05-15T06:47:18.926Z,2.10
2019-05-15T06:48:23.445Z,1.80
2019-05-15T06:49:28.616Z,2.10
2019-05-15T06:50:38.503Z,1.80
2019-05-15T06:51:43.255Z,1.82
2019-05-15T06:52:48.635Z,2.80
2019-05-15T06:53:53.457Z,1.77
2019-05-15T06:54:59.303Z,1.90
2019-05-15T06:56:04.204Z,1.65
2019-05-15T06:57:09.226Z,2.10
2019-05-15T06:58:13.928Z,2.20
2019-05-15T06:59:18.486Z,1.90
2019-05-15T07:00:23.122Z,1.95
2019-05-15T07:01:29.477Z,2.67
2019-05-15T07:02:33.868Z,1.50
2019-05-15T07:03:39.476Z,2.00
2019-05-15T07:04:44.222Z,1.87
2019-05-15T07:05:50.693Z,1.90
2019-05-15T07:06:55.075Z,1.92
2019-05-15T07:07:59.999Z,2.05
2019-05-15T07:09:05.884Z,1.72
2019-05-15T07:10:10.802Z,2.33
2019-05-15T07:11:15.533Z,2.05
2019-05-15T07:12:20.366Z,2.95
2019-05-15T07:13:24.981Z,2.50
2019-05-15T07:14:29.545Z,1.98
2019-05-15T07:15:34.122Z,2.67
2019-05-15T07:16:39.161Z,2.10
2019-05-15T07:17:44.024Z,2.35
2019-05-15T07:18:48.851Z,2.10
2019-05-15T07:19:53.601Z,2.92
2019-05-15T07:20:58.205Z,2.62
2019-05-15T07:22:02.947Z,2.40
2019-05-15T07:23:08.877Z,2.10
2019-05-15T07:24:13.720Z,2.25
2019-05-15T07:25:19.606Z,2.05
2019-05-15T07:26:24.201Z,2.37
2019-05-15T07:27:28.779Z,2.70
2019-05-15T07:28:33.387Z,1.70
2019-05-15T07:29:38.610Z,1.82
2019-05-15T07:30:43.383Z,2.92
2019-05-15T07:31:47.921Z,2.10
2019-05-15T07:32:52.758Z,2.22
2019-05-15T07:33:59.813Z,2.10
2019-05-15T07:35:03.760Z,2.30
2019-05-15T07:36:08.556Z,2.70
2019-05-15T07:37:13.811Z,2.45
2019-05-15T07:38:18.393Z,2.40
2019-05-15T07:39:23.543Z,2.30
2019-05-15T07:40:29.775Z,2.20
2019-05-15T07:41:34.643Z,2.47
2019-05-15T07:42:39.498Z,3.00
2019-05-15T07:43:44.164Z,2.75
2019-05-15T07:44:48.697Z,2.58
2019-05-15T07:45:55.593Z,2.35
2019-05-15T07:46:59.689Z,2.10
2019-05-15T07:48:04.412Z,2.65
2019-05-15T07:49:09.276Z,2.85
2019-05-15T07:50:14.720Z,3.47
2019-05-15T07:51:19.171Z,2.80
2019-05-15T07:52:23.772Z,2.80
2019-05-15T07:53:28.847Z,2.60
2019-05-15T07:54:33.861Z,2.60
2019-05-15T07:55:39.336Z,2.25
2019-05-15T07:56:44.117Z,2.33
2019-05-15T07:58:08.517Z,2.00
2019-05-15T07:59:13.274Z,2.75
2019-05-15T08:00:19.039Z,2.55
2019-05-15T08:01:23.953Z,2.35
2019-05-15T08:02:28.563Z,2.50
2019-05-15T08:03:33.062Z,2.70
2019-05-15T08:04:38.043Z,2.00
2019-05-15T08:05:58.017Z,2.33
2019-05-15T08:06:49.211Z,2.50
2019-05-15T08:07:53.889Z,2.35
2019-05-15T08:08:59.181Z,2.90
2019-05-15T08:10:04.847Z,2.40
2019-05-15T08:11:20.289Z,2.85
2019-05-15T08:12:15.572Z,1.90
2019-05-15T08:13:19.935Z,2.85
2019-05-15T08:14:24.581Z,2.00
2019-05-15T08:15:29.812Z,1.77
2019-05-15T08:16:34.603Z,2.10
2019-05-15T08:17:59.325Z,2.30
2019-05-15T08:18:45.523Z,2.60
2019-05-15T08:19:50.030Z,2.70
2019-05-15T08:20:54.749Z,2.40
2019-05-15T08:21:59.479Z,2.50
2019-05-15T08:23:04.038Z,2.87
2019-05-15T08:24:08.711Z,2.80
2019-05-15T08:25:30.137Z,2.92
2019-05-15T08:26:20.490Z,2.50
2019-05-15T08:27:25.549Z,2.70
2019-05-15T08:28:30.173Z,2.30
2019-05-15T08:29:34.797Z,2.20
2019-05-15T08:30:39.211Z,2.45
2019-05-15T08:31:44.208Z,2.75
2019-05-15T08:32:51.379Z,3.12
2019-05-15T08:34:08.418Z,2.30
2019-05-15T08:35:01.325Z,2.30
2019-05-15T08:36:08.364Z,2.90
2019-05-15T08:37:12.223Z,2.52
2019-05-15T08:38:18.298Z,2.47
2019-05-15T08:39:23.088Z,2.60
2019-05-15T08:40:28.473Z,2.60
2019-05-15T08:41:33.249Z,2.40
2019-05-15T08:42:41.595Z,2.58
2019-05-15T08:43:44.346Z,2.22
2019-05-15T08:44:49.117Z,2.37
2019-05-15T08:45:54.007Z,2.45
2019-05-15T08:46:59.172Z,2.60
2019-05-15T08:48:03.725Z,2.55
2019-05-15T08:49:09.229Z,2.70
2019-05-15T08:50:14.987Z,2.25
2019-05-15T08:51:19.556Z,2.52
2019-05-15T08:52:23.879Z,2.80
2019-05-15T08:53:28.867Z,2.40
2019-05-15T08:54:33.305Z,2.50
2019-05-15T08:55:39.136Z,2.47
2019-05-15T08:56:43.780Z,2.58
2019-05-15T08:57:55.608Z,2.65
2019-05-15T08:58:54.866Z,2.40
2019-05-15T08:59:59.623Z,3.17
2019-05-15T09:01:04.183Z,2.60
2019-05-15T09:02:08.753Z,2.30
2019-05-15T09:03:13.203Z,2.33
2019-05-15T09:04:27.807Z,2.15
2019-05-15T09:05:24.181Z,2.50
2019-05-15T09:06:29.307Z,2.95
2019-05-15T09:07:34.051Z,2.35
2019-05-15T09:08:39.304Z,3.30
2019-05-15T09:09:44.222Z,2.65
2019-05-15T09:10:50.186Z,2.70
2019-05-15T09:11:55.251Z,2.80
2019-05-15T09:12:59.771Z,3.05
2019-05-15T09:14:04.335Z,2.90
2019-05-15T09:15:11.197Z,2.98
2019-05-15T09:16:18.339Z,2.70
2019-05-15T09:17:22.244Z,2.85
2019-05-15T09:18:28.367Z,2.60
2019-05-15T09:19:33.251Z,2.83
2019-05-15T09:20:38.476Z,2.72
2019-05-15T09:21:43.308Z,2.00
2019-05-15T09:22:48.951Z,2.62
2019-05-15T09:23:53.963Z,2.45
2019-05-15T09:24:59.029Z,3.12
2019-05-15T09:26:03.843Z,3.33
2019-05-15T09:27:09.890Z,4.28
2019-05-15T09:28:14.822Z,4.40
2019-05-15T09:29:19.198Z,2.98
2019-05-15T09:30:24.015Z,3.87
2019-05-15T09:31:28.637Z,3.50
2019-05-15T09:32:33.358Z,3.27
2019-05-15T09:33:38.665Z,3.30
2019-05-15T09:34:50.492Z,3.12
2019-05-15T09:35:49.820Z,4.95
2019-05-15T09:36:54.543Z,6.28
2019-05-15T09:37:58.979Z,3.60
2019-05-15T09:39:03.749Z,3.17
2019-05-15T09:40:09.112Z,3.90
2019-05-15T09:41:14.058Z,4.62
2019-05-15T09:42:18.572Z,4.70
2019-05-15T09:43:23.266Z,4.53
2019-05-15T09:44:28.368Z,4.97
2019-05-15T09:45:33.193Z,6.12
2019-05-15T09:46:38.292Z,5.83
2019-05-15T09:47:43.217Z,4.58
2019-05-15T09:48:51.630Z,3.98
2019-05-15T09:49:54.389Z,4.95
2019-05-15T09:50:59.184Z,3.87
2019-05-15T09:52:03.771Z,4.72
2019-05-15T09:53:09.333Z,3.55
2019-05-15T09:54:14.226Z,4.55
2019-05-15T09:55:19.700Z,4.83
2019-05-15T09:56:24.394Z,3.80
2019-05-15T09:57:30.266Z,3.85
2019-05-15T09:58:35.242Z,3.90
2019-05-15T09:59:39.714Z,4.40
2019-05-15T10:00:44.604Z,3.52
2019-05-15T10:01:49.314Z,3.83
2019-05-15T10:02:54.070Z,3.00
2019-05-15T10:03:58.552Z,2.98
2019-05-15T10:05:06.761Z,2.60
2019-05-15T10:06:09.464Z,3.35
2019-05-15T10:07:14.544Z,2.22
2019-05-15T10:08:21.292Z,2.30
2019-05-15T10:09:25.419Z,3.58
2019-05-15T10:10:29.938Z,2.87
2019-05-15T10:11:34.737Z,3.35
2019-05-15T10:12:39.685Z,2.30
2019-05-15T10:13:44.347Z,2.90
2019-05-15T10:14:49.408Z,3.02
2019-05-15T10:15:54.444Z,2.95
2019-05-15T10:16:59.037Z,3.52
2019-05-15T10:18:03.836Z,3.40
2019-05-15T10:19:08.991Z,3.02
2019-05-15T10:20:14.110Z,2.95
2019-05-15T10:21:18.875Z,2.52
2019-05-15T10:22:23.480Z,2.60
2019-05-15T10:23:29.052Z,2.33
2019-05-15T10:24:34.298Z,2.72
2019-05-15T10:25:39.043Z,2.67
2019-05-15T10:26:43.938Z,3.30
2019-05-15T10:27:48.921Z,2.65
2019-05-15T10:28:53.984Z,2.45
2019-05-15T10:29:58.894Z,2.75
2019-05-15T10:31:03.636Z,2.80
2019-05-15T10:32:08.728Z,2.55
2019-05-15T10:33:13.535Z,2.58
2019-05-15T10:34:18.450Z,2.95
2019-05-15T10:35:28.312Z,2.67
2019-05-15T10:36:29.466Z,2.85
2019-05-15T10:37:34.124Z,2.10
2019-05-15T10:38:39.266Z,2.30
2019-05-15T10:39:44.176Z,2.85
2019-05-15T10:40:59.826Z,2.60
2019-05-15T10:41:55.207Z,3.00
2019-05-15T10:42:59.683Z,2.83
2019-05-15T10:44:04.585Z,3.50
2019-05-15T10:45:09.959Z,3.05
2019-05-15T10:46:14.625Z,2.72
2019-05-15T10:47:19.074Z,2.90
2019-05-15T10:48:23.713Z,3.05
2019-05-15T10:49:28.368Z,2.60
2019-05-15T10:50:33.161Z,2.67
2019-05-15T10:51:39.560Z,2.70
2019-05-15T10:52:44.255Z,2.67
2019-05-15T10:53:49.012Z,3.33
2019-05-15T10:54:53.994Z,2.90
2019-05-15T10:55:59.671Z,2.92
2019-05-15T10:57:05.440Z,2.95
2019-05-15T10:58:14.157Z,2.50
2019-05-15T10:59:18.256Z,2.67
2019-05-15T11:00:23.234Z,2.98
2019-05-15T11:01:28.012Z,3.42
2019-05-15T11:02:32.465Z,2.77
2019-05-15T11:03:39.707Z,2.83
2019-05-15T11:04:43.493Z,3.20
2019-05-15T11:05:49.099Z,3.50
2019-05-15T11:06:54.136Z,3.10
2019-05-15T11:07:59.038Z,2.55
2019-05-15T11:09:04.723Z,3.22
2019-05-15T11:10:09.861Z,3.22
2019-05-15T11:11:14.442Z,2.60
2019-05-15T11:12:19.351Z,2.70
2019-05-15T11:13:24.023Z,2.98
2019-05-15T11:14:28.833Z,2.37
2019-05-15T11:15:33.398Z,3.05
2019-05-15T11:16:39.044Z,2.98
2019-05-15T11:17:44.163Z,2.80
2019-05-15T11:18:48.677Z,2.60
2019-05-15T11:19:53.159Z,2.80
2019-05-15T11:20:59.291Z,3.30
2019-05-15T11:22:04.121Z,3.00
2019-05-15T11:23:10.150Z,2.72
2019-05-15T11:24:14.790Z,3.42
2019-05-15T11:25:19.868Z,3.20
2019-05-15T11:26:24.451Z,2.67
2019-05-15T11:27:31.488Z,2.80
2019-05-15T11:28:39.077Z,3.40
2019-05-15T11:29:42.567Z,3.50
2019-05-15T11:30:48.993Z,2.40
2019-05-15T11:31:53.662Z,2.47
2019-05-15T11:32:58.752Z,2.83
2019-05-15T11:34:03.595Z,3.30
2019-05-15T11:35:08.754Z,3.30
2019-05-15T11:36:13.493Z,2.70
2019-05-15T11:37:18.945Z,3.10
2019-05-15T11:38:23.910Z,3.22
2019-05-15T11:39:28.923Z,2.50
2019-05-15T11:40:33.871Z,2.70
2019-05-15T11:41:38.804Z,3.17
2019-05-15T11:42:43.825Z,2.92
2019-05-15T11:43:49.503Z,3.12
2019-05-15T11:44:54.383Z,2.60
2019-05-15T11:45:59.059Z,2.77
2019-05-15T11:47:03.766Z,3.10
2019-05-15T11:48:09.117Z,2.67
2019-05-15T11:49:14.013Z,3.20
2019-05-15T11:50:20.596Z,2.98
2019-05-15T11:51:25.297Z,2.87
2019-05-15T11:52:29.889Z,2.37
2019-05-15T11:53:34.645Z,3.42
2019-05-15T11:54:40.632Z,2.98
2019-05-15T11:55:45.279Z,2.70
2019-05-15T11:56:49.979Z,2.85
2019-05-15T11:57:55.763Z,3.33
2019-05-15T11:59:00.607Z,2.50
2019-05-15T12:00:14.578Z,3.37
2019-05-15T12:01:13.949Z,3.17
2019-05-15T12:02:18.972Z,2.70
2019-05-15T12:03:24.961Z,3.15
2019-05-15T12:04:34.029Z,3.05
2019-05-15T12:05:38.506Z,3.80
2019-05-15T12:06:42.599Z,2.70
2019-05-15T12:07:47.766Z,3.35
2019-05-15T12:08:52.791Z,2.55
2019-05-15T12:09:58.053Z,2.75
2019-05-15T12:11:02.915Z,2.85
2019-05-15T12:12:08.864Z,4.00
2019-05-15T12:13:13.680Z,3.15
2019-05-15T12:14:19.362Z,3.00
2019-05-15T12:15:24.362Z,3.10
2019-05-15T12:16:29.180Z,2.50
2019-05-15T12:17:34.277Z,2.85
2019-05-15T12:18:39.183Z,2.70
2019-05-15T12:19:43.858Z,3.52
2019-05-15T12:20:48.764Z,2.50
2019-05-15T12:21:53.773Z,2.90
2019-05-15T12:22:59.386Z,3.25
2019-05-15T12:24:04.585Z,2.60
2019-05-15T12:25:10.650Z,2.75
2019-05-15T12:26:15.405Z,3.33
2019-05-15T12:27:19.851Z,2.75
2019-05-15T12:28:24.577Z,2.75
2019-05-15T12:29:29.152Z,2.60
2019-05-15T12:30:34.017Z,2.90
2019-05-15T12:31:38.990Z,2.30
2019-05-15T12:32:44.049Z,3.00
2019-05-15T12:33:49.063Z,3.30
2019-05-15T12:34:53.826Z,2.60
2019-05-15T12:35:58.604Z,2.95
2019-05-15T12:37:03.247Z,2.70
2019-05-15T12:38:10.062Z,2.90
2019-05-15T12:39:19.986Z,2.70
2019-05-15T13:00:18.563Z,2.55
2019-05-15T13:01:23.280Z,2.90
2019-05-15T13:02:28.126Z,2.30
2019-05-15T13:03:33.018Z,2.62
2019-05-15T13:04:38.954Z,2.60
2019-05-15T13:05:43.977Z,2.25
2019-05-15T13:07:10.158Z,2.62
2019-05-15T13:07:54.805Z,2.60
2019-05-15T13:08:59.619Z,2.70
2019-05-15T13:10:04.997Z,2.40
2019-05-15T13:11:14.693Z,2.50
2019-05-15T13:12:18.160Z,2.70
2019-05-15T13:13:22.237Z,3.08
2019-05-15T13:14:28.423Z,3.27
2019-05-15T13:15:33.353Z,2.60
2019-05-15T13:16:38.997Z,2.50
2019-05-15T13:17:43.722Z,1.92
2019-05-15T13:18:48.401Z,2.12
2019-05-15T13:19:52.945Z,2.30
2019-05-15T13:20:59.556Z,2.30
2019-05-15T13:22:16.284Z,2.40
2019-05-15T13:23:10.630Z,2.70
2019-05-15T13:24:15.252Z,2.85
2019-05-15T13:25:21.755Z,2.30
2019-05-15T13:26:27.082Z,2.52
2019-05-15T13:27:32.102Z,2.45
2019-05-15T13:28:36.763Z,2.17
2019-05-15T13:29:41.616Z,2.22
2019-05-15T13:30:48.721Z,2.25
2019-05-15T13:31:52.565Z,2.17
2019-05-15T13:32:58.758Z,2.17
2019-05-15T13:34:03.775Z,2.40
2019-05-15T13:35:09.942Z,2.72
2019-05-15T13:36:14.820Z,2.20
2019-05-15T13:37:26.645Z,2.10
2019-05-15T13:38:25.695Z,2.10
2019-05-15T13:39:30.287Z,2.10
2019-05-15T13:40:38.232Z,2.30
2019-05-15T13:41:41.244Z,2.60
2019-05-15T13:42:48.088Z,2.45
2019-05-15T13:43:52.188Z,2.10
2019-05-15T13:44:58.668Z,3.00
2019-05-15T13:46:03.042Z,2.30
2019-05-15T13:47:08.681Z,2.52
2019-05-15T13:48:16.394Z,2.10
2019-05-15T13:49:19.981Z,2.15
2019-05-15T13:50:24.601Z,1.90
2019-05-15T13:51:29.339Z,1.98
2019-05-15T13:52:34.127Z,1.98
2019-05-15T13:53:38.894Z,2.60
2019-05-15T13:54:43.509Z,2.75
2019-05-15T13:55:48.494Z,3.25
2019-05-15T13:56:53.084Z,2.90
2019-05-15T13:57:58.088Z,3.20
2019-05-15T13:59:02.623Z,2.90
2019-05-15T14:00:09.351Z,2.40
2019-05-15T14:01:13.877Z,2.40
2019-05-15T14:02:18.714Z,2.08
2019-05-15T14:03:23.180Z,2.00
2019-05-15T14:04:29.935Z,2.10
2019-05-15T14:05:34.053Z,2.17
2019-05-15T14:06:38.701Z,1.87
2019-05-15T14:07:49.455Z,2.08
2019-05-15T14:08:49.517Z,2.83
2019-05-15T14:09:54.097Z,2.17
2019-05-15T14:10:58.843Z,2.10
2019-05-15T14:12:03.356Z,2.22
2019-05-15T14:13:08.204Z,2.22
2019-05-15T14:14:12.661Z,2.77
2019-05-15T14:15:17.899Z,2.20
2019-05-15T14:16:22.353Z,1.87
2019-05-15T14:17:28.295Z,1.90
2019-05-15T14:18:32.947Z,1.95
2019-05-15T14:19:38.656Z,2.22
2019-05-15T14:20:43.383Z,2.50
2019-05-15T14:21:49.091Z,2.00
2019-05-15T14:22:53.876Z,2.12
2019-05-15T14:24:01.491Z,2.15
2019-05-15T14:25:05.966Z,1.80
2019-05-15T14:26:17.966Z,2.70
2019-05-15T14:27:19.310Z,2.10
2019-05-15T14:28:23.235Z,1.80
2019-05-15T14:29:29.138Z,2.08
2019-05-15T14:30:34.033Z,2.67
2019-05-15T14:32:45.199Z,2.33
2019-05-15T14:32:53.495Z,1.95
2019-05-15T14:33:49.704Z,1.87
2019-05-15T14:34:54.340Z,2.40
2019-05-15T14:35:58.807Z,2.10
2019-05-15T14:37:03.719Z,2.02
2019-05-15T14:38:11.037Z,1.60
2019-05-15T14:39:14.787Z,2.33
2019-05-15T14:40:19.681Z,2.58
2019-05-15T14:41:24.450Z,2.05
2019-05-15T14:42:29.435Z,2.60
2019-05-15T14:43:34.292Z,2.37
2019-05-15T14:44:39.089Z,1.85
2019-05-15T14:45:44.394Z,2.30
2019-05-15T14:46:50.881Z,2.10
2019-05-15T14:47:57.989Z,2.45